PWSweather.com
Personal Weather Stations
Station Observations
SHAHALMS1
Eftra, Falkenberg, HA

EftraFalkenberg, HA

Lat: 56.85, Lon: 12.65

Elevation: 140

Station Type:

http://hem.passagen.se/risarp101

High Low Average
Temperature 59.0°F15.0°C 41.0°F5.0°C 49.6°F9.8°C
Dew Point 46.8°F8.2°C 25.2°F-3.8°C 37.1°F2.8°C
Winds 9.2 mph 14.8 kmh Calm Calm 3.0 mph SE4.8 kmh SE
Wind Gusts 17.5 mph28.2 kmh -- 8.0 mph12.9 kmh
Humidity 80% 48% 63%
Pressure 29.92 in1013.2 mb 29.80 in1009.1 mb -
Precipitation 0.00 in0.0 mm - -
Hour Temp Dew Point Humidity Winds Wind Gusts Pressure Precip Precip Rate Daily Precip Total
12:00 AM 50.5°F10.3°C 34.0°F1.1°C 53% 5.1 mph ESE8.2 kmh ESE 11.1 mph17.9 kmh 29.89 in1012.2 mb 0.00 in0.0 mm 0.00 in0.0 mm 0.00 in0.0 mm
12:30 AM 49.3°F9.6°C 33.3°F0.7°C 54% 4.1 mph E6.6 kmh E 8.9 mph14.3 kmh 29.89 in1012.2 mb 0.00 in0.0 mm 0.00 in0.0 mm 0.00 in0.0 mm
12:45 AM 49.1°F9.5°C 33.2°F0.7°C 54% Calm Calm -- 29.89 in1012.2 mb 0.00 in0.0 mm 0.00 in0.0 mm 0.00 in0.0 mm
01:00 AM 47.7°F8.7°C 32.3°F0.2°C 55% Calm Calm -- 29.89 in1012.2 mb 0.00 in0.0 mm 0.00 in0.0 mm 0.00 in0.0 mm
01:15 AM 46.8°F8.2°C 31.9°F-0.1°C 56% Calm Calm -- 29.89 in1012.2 mb 0.00 in0.0 mm 0.00 in0.0 mm 0.00 in0.0 mm
01:30 AM 44.8°F7.1°C 30.5°F-0.8°C 57% Calm Calm -- 29.89 in1012.2 mb 0.00 in0.0 mm 0.00 in0.0 mm 0.00 in0.0 mm
01:45 AM 43.9°F6.6°C 30.5°F-0.8°C 59% Calm Calm -- 29.86 in1011.2 mb 0.00 in0.0 mm 0.00 in0.0 mm 0.00 in0.0 mm
02:00 AM 42.8°F6.0°C 29.9°F-1.2°C 60% Calm Calm -- 29.86 in1011.2 mb 0.00 in0.0 mm 0.00 in0.0 mm 0.00 in0.0 mm
02:15 AM 42.4°F5.8°C 32.6°F0.3°C 68% Calm Calm -- 29.86 in1011.2 mb 0.00 in0.0 mm 0.00 in0.0 mm 0.00 in0.0 mm
02:30 AM 42.4°F5.8°C 33.3°F0.7°C 70% Calm Calm -- 29.86 in1011.2 mb 0.00 in0.0 mm 0.00 in0.0 mm 0.00 in0.0 mm
02:45 AM 43.0°F6.1°C 35.3°F1.8°C 74% Calm Calm -- 29.83 in1010.2 mb 0.00 in0.0 mm 0.00 in0.0 mm 0.00 in0.0 mm
03:00 AM 44.2°F6.8°C 35.1°F1.7°C 70% 7.1 mph E11.4 kmh E 11.8 mph19.0 kmh 29.86 in1011.2 mb 0.00 in0.0 mm 0.00 in0.0 mm 0.00 in0.0 mm
03:15 AM 43.2°F6.2°C 33.3°F0.7°C 68% 0.1 mph E0.2 kmh E 3.9 mph6.3 kmh 29.86 in1011.2 mb 0.00 in0.0 mm 0.00 in0.0 mm 0.00 in0.0 mm
03:30 AM 42.3°F5.7°C 32.4°F0.2°C 68% Calm Calm -- 29.86 in1011.2 mb 0.00 in0.0 mm 0.00 in0.0 mm 0.00 in0.0 mm
03:45 AM 42.8°F6.0°C 33.3°F0.7°C 69% Calm Calm -- 29.86 in1011.2 mb 0.00 in0.0 mm 0.00 in0.0 mm 0.00 in0.0 mm
04:00 AM 42.6°F5.9°C 33.2°F0.7°C 69% 0.2 mph SE0.3 kmh SE 5.0 mph8.0 kmh 29.83 in1010.2 mb 0.00 in0.0 mm 0.00 in0.0 mm 0.00 in0.0 mm
04:15 AM 43.7°F6.5°C 34.9°F1.6°C 71% 5.0 mph ESE8.0 kmh ESE 12.5 mph20.1 kmh 29.83 in1010.2 mb 0.00 in0.0 mm 0.00 in0.0 mm 0.00 in0.0 mm
04:30 AM 43.9°F6.6°C 34.7°F1.5°C 70% Calm Calm 2.1 mph3.4 kmh 29.83 in1010.2 mb 0.00 in0.0 mm 0.00 in0.0 mm 0.00 in0.0 mm
04:45 AM 43.5°F6.4°C 34.4°F1.3°C 70% Calm Calm -- 29.86 in1011.2 mb 0.00 in0.0 mm 0.00 in0.0 mm 0.00 in0.0 mm
05:00 AM 43.3°F6.3°C 34.2°F1.2°C 70% Calm Calm -- 29.86 in1011.2 mb 0.00 in0.0 mm 0.00 in0.0 mm 0.00 in0.0 mm
05:15 AM 43.5°F6.4°C 34.7°F1.5°C 71% 0.1 mph S0.2 kmh S 2.5 mph4.0 kmh 29.83 in1010.2 mb 0.00 in0.0 mm 0.00 in0.0 mm 0.00 in0.0 mm
05:30 AM 43.7°F6.5°C 34.9°F1.6°C 71% Calm Calm -- 29.83 in1010.2 mb 0.00 in0.0 mm 0.00 in0.0 mm 0.00 in0.0 mm
05:45 AM 44.2°F6.8°C 36.1°F2.3°C 73% 3.0 mph SE4.8 kmh SE 8.6 mph13.8 kmh 29.83 in1010.2 mb 0.00 in0.0 mm 0.00 in0.0 mm 0.00 in0.0 mm
06:00 AM 44.4°F6.9°C 36.3°F2.4°C 73% 0.9 mph E1.4 kmh E 8.6 mph13.8 kmh 29.83 in1010.2 mb 0.00 in0.0 mm 0.00 in0.0 mm 0.00 in0.0 mm
06:15 AM 44.1°F6.7°C 36.3°F2.4°C 74% 1.0 mph ESE1.6 kmh ESE 7.9 mph12.7 kmh 29.83 in1010.2 mb 0.00 in0.0 mm 0.00 in0.0 mm 0.00 in0.0 mm
06:30 AM 44.4°F6.9°C 36.6°F2.6°C 74% 2.0 mph E3.2 kmh E 8.9 mph14.3 kmh 29.83 in1010.2 mb 0.00 in0.0 mm 0.00 in0.0 mm 0.00 in0.0 mm
06:45 AM 44.6°F7.0°C 37.2°F2.9°C 75% 4.7 mph ESE7.6 kmh ESE 10.0 mph16.1 kmh 29.83 in1010.2 mb 0.00 in0.0 mm 0.00 in0.0 mm 0.00 in0.0 mm
07:00 AM 45.0°F7.2°C 37.2°F2.9°C 74% Calm Calm -- 29.86 in1011.2 mb 0.00 in0.0 mm 0.00 in0.0 mm 0.00 in0.0 mm
07:15 AM 44.8°F7.1°C 37.7°F3.2°C 76% Calm Calm -- 29.86 in1011.2 mb 0.00 in0.0 mm 0.00 in0.0 mm 0.00 in0.0 mm
07:30 AM 44.8°F7.1°C 39.0°F3.9°C 80% 0.2 mph ESE0.3 kmh ESE 5.0 mph8.0 kmh 29.86 in1011.2 mb 0.00 in0.0 mm 0.00 in0.0 mm 0.00 in0.0 mm
07:45 AM 45.3°F7.4°C 39.5°F4.2°C 80% 0.3 mph E0.5 kmh E 6.1 mph9.8 kmh 29.86 in1011.2 mb 0.00 in0.0 mm 0.00 in0.0 mm 0.00 in0.0 mm
08:00 AM 46.2°F7.9°C 40.4°F4.7°C 80% 0.4 mph S0.6 kmh S 4.7 mph7.6 kmh 29.86 in1011.2 mb 0.00 in0.0 mm 0.00 in0.0 mm 0.00 in0.0 mm
08:16 AM 47.1°F8.4°C 40.9°F4.9°C 79% Calm Calm 1.4 mph2.3 kmh 29.86 in1011.2 mb 0.00 in0.0 mm 0.00 in0.0 mm 0.00 in0.0 mm
08:32 AM 47.1°F8.4°C 40.9°F4.9°C 79% Calm Calm -- 29.86 in1011.2 mb 0.00 in0.0 mm 0.00 in0.0 mm 0.00 in0.0 mm
08:45 AM 47.5°F8.6°C 41.0°F5.0°C 78% 0.3 mph E0.5 kmh E 5.7 mph9.2 kmh 29.86 in1011.2 mb 0.00 in0.0 mm 0.00 in0.0 mm 0.00 in0.0 mm
09:00 AM 48.9°F9.4°C 42.7°F5.9°C 79% 4.7 mph E7.6 kmh E 9.7 mph15.6 kmh 29.86 in1011.2 mb 0.00 in0.0 mm 0.00 in0.0 mm 0.00 in0.0 mm
09:15 AM 49.8°F9.9°C 43.2°F6.2°C 78% 2.1 mph E3.4 kmh E 8.9 mph14.3 kmh 29.86 in1011.2 mb 0.00 in0.0 mm 0.00 in0.0 mm 0.00 in0.0 mm
09:30 AM 51.1°F10.6°C 43.8°F6.6°C 76% Calm Calm -- 29.86 in1011.2 mb 0.00 in0.0 mm 0.00 in0.0 mm 0.00 in0.0 mm
09:45 AM 52.3°F11.3°C 43.9°F6.6°C 73% Calm Calm -- 29.86 in1011.2 mb 0.00 in0.0 mm 0.00 in0.0 mm 0.00 in0.0 mm
10:00 AM 54.1°F12.3°C 43.8°F6.6°C 68% 1.5 mph NNW2.4 kmh NNW 6.4 mph10.3 kmh 29.86 in1011.2 mb 0.00 in0.0 mm 0.00 in0.0 mm 0.00 in0.0 mm
10:15 AM 55.4°F13.0°C 43.8°F6.6°C 65% 1.7 mph WNW2.7 kmh WNW 7.9 mph12.7 kmh 29.86 in1011.2 mb 0.00 in0.0 mm 0.00 in0.0 mm 0.00 in0.0 mm
10:30 AM 55.8°F13.2°C 44.2°F6.8°C 65% 2.1 mph W3.4 kmh W 8.6 mph13.8 kmh 29.89 in1012.2 mb 0.00 in0.0 mm 0.00 in0.0 mm 0.00 in0.0 mm
10:45 AM 55.4°F13.0°C 43.4°F6.3°C 64% 1.9 mph W3.1 kmh W 7.2 mph11.6 kmh 29.89 in1012.2 mb 0.00 in0.0 mm 0.00 in0.0 mm 0.00 in0.0 mm
11:00 AM 55.4°F13.0°C 43.4°F6.3°C 64% 3.4 mph WNW5.5 kmh WNW 8.9 mph14.3 kmh 29.89 in1012.2 mb 0.00 in0.0 mm 0.00 in0.0 mm 0.00 in0.0 mm
11:15 AM 55.2°F12.9°C 43.2°F6.2°C 64% 1.6 mph W2.6 kmh W 6.8 mph10.9 kmh 29.89 in1012.2 mb 0.00 in0.0 mm 0.00 in0.0 mm 0.00 in0.0 mm
11:30 AM 54.3°F12.4°C 43.2°F6.2°C 66% 4.5 mph W7.2 kmh W 9.7 mph15.6 kmh 29.89 in1012.2 mb 0.00 in0.0 mm 0.00 in0.0 mm 0.00 in0.0 mm
11:45 AM 54.5°F12.5°C 44.5°F6.9°C 69% 4.0 mph W6.4 kmh W 9.7 mph15.6 kmh 29.86 in1011.2 mb 0.00 in0.0 mm 0.00 in0.0 mm 0.00 in0.0 mm
12:00 PM 54.5°F12.5°C 44.2°F6.8°C 68% 5.1 mph W8.2 kmh W 10.4 mph16.7 kmh 29.86 in1011.2 mb 0.00 in0.0 mm 0.00 in0.0 mm 0.00 in0.0 mm
12:15 PM 55.0°F12.8°C 44.3°F6.8°C 67% 3.6 mph W5.8 kmh W 9.3 mph15.0 kmh 29.86 in1011.2 mb 0.00 in0.0 mm 0.00 in0.0 mm 0.00 in0.0 mm
12:30 PM 55.6°F13.1°C 44.8°F7.1°C 67% 4.6 mph W7.4 kmh W 9.7 mph15.6 kmh 29.86 in1011.2 mb 0.00 in0.0 mm 0.00 in0.0 mm 0.00 in0.0 mm
12:45 PM 56.1°F13.4°C 44.9°F7.2°C 66% 5.5 mph W8.9 kmh W 9.7 mph15.6 kmh 29.86 in1011.2 mb 0.00 in0.0 mm 0.00 in0.0 mm 0.00 in0.0 mm
01:00 PM 56.3°F13.5°C 44.3°F6.8°C 64% 5.5 mph W8.9 kmh W 10.0 mph16.1 kmh 29.86 in1011.2 mb 0.00 in0.0 mm 0.00 in0.0 mm 0.00 in0.0 mm
01:15 PM 56.1°F13.4°C 43.7°F6.5°C 63% 5.5 mph W8.9 kmh W 9.7 mph15.6 kmh 29.86 in1011.2 mb 0.00 in0.0 mm 0.00 in0.0 mm 0.00 in0.0 mm
01:30 PM 56.3°F13.5°C 43.9°F6.6°C 63% 4.6 mph W7.4 kmh W 10.4 mph16.7 kmh 29.86 in1011.2 mb 0.00 in0.0 mm 0.00 in0.0 mm 0.00 in0.0 mm
01:45 PM 56.8°F13.8°C 44.4°F6.9°C 63% 2.9 mph W4.7 kmh W 9.3 mph15.0 kmh 29.83 in1010.2 mb 0.00 in0.0 mm 0.00 in0.0 mm 0.00 in0.0 mm
02:00 PM 57.6°F14.2°C 45.5°F7.5°C 64% 4.7 mph W7.6 kmh W 10.0 mph16.1 kmh 29.83 in1010.2 mb 0.00 in0.0 mm 0.00 in0.0 mm 0.00 in0.0 mm
02:15 PM 58.1°F14.5°C 46.8°F8.2°C 66% 4.8 mph W7.7 kmh W 10.4 mph16.7 kmh 29.83 in1010.2 mb 0.00 in0.0 mm 0.00 in0.0 mm 0.00 in0.0 mm
02:30 PM 58.3°F14.6°C 46.6°F8.1°C 65% 3.5 mph W5.6 kmh W 8.6 mph13.8 kmh 29.83 in1010.2 mb 0.00 in0.0 mm 0.00 in0.0 mm 0.00 in0.0 mm
02:45 PM 59.0°F15.0°C 46.8°F8.2°C 64% 5.2 mph W8.4 kmh W 11.5 mph18.5 kmh 29.83 in1010.2 mb 0.00 in0.0 mm 0.00 in0.0 mm 0.00 in0.0 mm
03:00 PM 58.8°F14.9°C 45.4°F7.4°C 61% 5.3 mph NW8.5 kmh NW 12.2 mph19.6 kmh 29.83 in1010.2 mb 0.00 in0.0 mm 0.00 in0.0 mm 0.00 in0.0 mm
03:15 PM 58.3°F14.6°C 44.0°F6.7°C 59% 6.1 mph NW9.8 kmh NW 12.5 mph20.1 kmh 29.83 in1010.2 mb 0.00 in0.0 mm 0.00 in0.0 mm 0.00 in0.0 mm
03:30 PM 57.9°F14.4°C 43.7°F6.5°C 59% 4.7 mph NW7.6 kmh NW 11.5 mph18.5 kmh 29.83 in1010.2 mb 0.00 in0.0 mm 0.00 in0.0 mm 0.00 in0.0 mm
03:45 PM 58.3°F14.6°C 44.0°F6.7°C 59% 4.0 mph W6.4 kmh W 10.4 mph16.7 kmh 29.83 in1010.2 mb 0.00 in0.0 mm 0.00 in0.0 mm 0.00 in0.0 mm
04:00 PM 58.6°F14.8°C 44.8°F7.1°C 60% 3.6 mph W5.8 kmh W 9.3 mph15.0 kmh 29.80 in1009.1 mb 0.00 in0.0 mm 0.00 in0.0 mm 0.00 in0.0 mm
04:31 PM 58.6°F14.8°C 43.9°F6.6°C 58% 2.8 mph WNW4.5 kmh WNW 9.3 mph15.0 kmh 29.83 in1010.2 mb 0.00 in0.0 mm 0.00 in0.0 mm 0.00 in0.0 mm
04:45 PM 58.6°F14.8°C 43.4°F6.3°C 57% 3.4 mph WNW5.5 kmh WNW 7.5 mph12.1 kmh 29.83 in1010.2 mb 0.00 in0.0 mm 0.00 in0.0 mm 0.00 in0.0 mm
05:00 PM 58.5°F14.7°C 42.8°F6.0°C 56% 3.1 mph W5.0 kmh W 11.8 mph19.0 kmh 29.80 in1009.1 mb 0.00 in0.0 mm 0.00 in0.0 mm 0.00 in0.0 mm
05:15 PM 58.3°F14.6°C 42.6°F5.9°C 56% 2.6 mph WNW4.2 kmh WNW 6.4 mph10.3 kmh 29.83 in1010.2 mb 0.00 in0.0 mm 0.00 in0.0 mm 0.00 in0.0 mm
05:30 PM 57.7°F14.3°C 42.6°F5.9°C 57% 3.5 mph NW5.6 kmh NW 9.7 mph15.6 kmh 29.83 in1010.2 mb 0.00 in0.0 mm 0.00 in0.0 mm 0.00 in0.0 mm
05:45 PM 57.2°F14.0°C 40.7°F4.8°C 54% 8.5 mph N13.7 kmh N 15.7 mph25.3 kmh 29.83 in1010.2 mb 0.00 in0.0 mm 0.00 in0.0 mm 0.00 in0.0 mm
06:00 PM 56.5°F13.6°C 39.1°F3.9°C 52% 8.4 mph N13.5 kmh N 14.0 mph22.5 kmh 29.83 in1010.2 mb 0.00 in0.0 mm 0.00 in0.0 mm 0.00 in0.0 mm
06:15 PM 55.6°F13.1°C 37.7°F3.2°C 51% 7.9 mph N12.7 kmh N 12.9 mph20.8 kmh 29.83 in1010.2 mb 0.00 in0.0 mm 0.00 in0.0 mm 0.00 in0.0 mm
06:30 PM 54.3°F12.4°C 36.6°F2.6°C 51% 8.2 mph N13.2 kmh N 13.6 mph21.9 kmh 29.86 in1011.2 mb 0.00 in0.0 mm 0.00 in0.0 mm 0.00 in0.0 mm
06:45 PM 53.8°F12.1°C 36.1°F2.3°C 51% 7.5 mph N12.1 kmh N 12.2 mph19.6 kmh 29.86 in1011.2 mb 0.00 in0.0 mm 0.00 in0.0 mm 0.00 in0.0 mm
07:00 PM 52.5°F11.4°C 34.9°F1.6°C 51% 4.7 mph N7.6 kmh N 10.0 mph16.1 kmh 29.86 in1011.2 mb 0.00 in0.0 mm 0.00 in0.0 mm 0.00 in0.0 mm
07:15 PM 51.6°F10.9°C 33.6°F0.9°C 50% 7.6 mph N12.2 kmh N 14.3 mph23.0 kmh 29.86 in1011.2 mb 0.00 in0.0 mm 0.00 in0.0 mm 0.00 in0.0 mm
07:30 PM 50.7°F10.4°C 32.2°F0.1°C 49% 9.2 mph N14.8 kmh N 17.5 mph28.2 kmh 29.89 in1012.2 mb 0.00 in0.0 mm 0.00 in0.0 mm 0.00 in0.0 mm
07:45 PM 49.6°F9.8°C 30.7°F-0.7°C 48% 8.6 mph N13.8 kmh N 17.5 mph28.2 kmh 29.89 in1012.2 mb 0.00 in0.0 mm 0.00 in0.0 mm 0.00 in0.0 mm
08:00 PM 48.6°F9.2°C 30.2°F-1.0°C 49% 4.8 mph NNE7.7 kmh NNE 10.4 mph16.7 kmh 29.86 in1011.2 mb 0.00 in0.0 mm 0.00 in0.0 mm 0.00 in0.0 mm
08:15 PM 47.5°F8.6°C 29.3°F-1.5°C 49% 4.9 mph NE7.9 kmh NE 10.4 mph16.7 kmh 29.89 in1012.2 mb 0.00 in0.0 mm 0.00 in0.0 mm 0.00 in0.0 mm
08:30 PM 46.8°F8.2°C 28.6°F-1.9°C 49% 5.4 mph NE8.7 kmh NE 11.1 mph17.9 kmh 29.89 in1012.2 mb 0.00 in0.0 mm 0.00 in0.0 mm 0.00 in0.0 mm
08:45 PM 45.9°F7.7°C 28.3°F-2.1°C 50% 4.4 mph NE7.1 kmh NE 10.0 mph16.1 kmh 29.89 in1012.2 mb 0.00 in0.0 mm 0.00 in0.0 mm 0.00 in0.0 mm
09:00 PM 45.1°F7.3°C 27.6°F-2.4°C 50% 5.4 mph NE8.7 kmh NE 12.2 mph19.6 kmh 29.89 in1012.2 mb 0.00 in0.0 mm 0.00 in0.0 mm 0.00 in0.0 mm
09:15 PM 44.8°F7.1°C 27.3°F-2.6°C 50% 6.6 mph NE10.6 kmh NE 11.1 mph17.9 kmh 29.89 in1012.2 mb 0.00 in0.0 mm 0.00 in0.0 mm 0.00 in0.0 mm
09:30 PM 44.4°F6.9°C 27.4°F-2.6°C 51% 8.1 mph NNE13.0 kmh NNE 13.6 mph21.9 kmh 29.89 in1012.2 mb 0.00 in0.0 mm 0.00 in0.0 mm 0.00 in0.0 mm
09:45 PM 44.1°F6.7°C 27.1°F-2.7°C 51% 5.9 mph NE9.5 kmh NE 11.5 mph18.5 kmh 29.92 in1013.2 mb 0.00 in0.0 mm 0.00 in0.0 mm 0.00 in0.0 mm
10:00 PM 43.5°F6.4°C 26.6°F-3.0°C 51% 5.4 mph NE8.7 kmh NE 10.4 mph16.7 kmh 29.92 in1013.2 mb 0.00 in0.0 mm 0.00 in0.0 mm 0.00 in0.0 mm
10:15 PM 43.2°F6.2°C 26.7°F-2.9°C 52% 5.7 mph NE9.2 kmh NE 10.0 mph16.1 kmh 29.92 in1013.2 mb 0.00 in0.0 mm 0.00 in0.0 mm 0.00 in0.0 mm
10:30 PM 42.8°F6.0°C 26.4°F-3.1°C 52% 4.8 mph NE7.7 kmh NE 10.0 mph16.1 kmh 29.92 in1013.2 mb 0.00 in0.0 mm 0.00 in0.0 mm 0.00 in0.0 mm
10:45 PM 42.4°F5.8°C 26.0°F-3.3°C 52% 6.5 mph NE10.5 kmh NE 11.1 mph17.9 kmh 29.92 in1013.2 mb 0.00 in0.0 mm 0.00 in0.0 mm 0.00 in0.0 mm
11:00 PM 41.9°F5.5°C 25.5°F-3.6°C 52% 4.3 mph NE6.9 kmh NE 10.4 mph16.7 kmh 29.92 in1013.2 mb 0.00 in0.0 mm 0.00 in0.0 mm 0.00 in0.0 mm
11:15 PM 41.5°F5.3°C 25.7°F-3.5°C 53% 4.7 mph NE7.6 kmh NE 10.4 mph16.7 kmh 29.92 in1013.2 mb 0.00 in0.0 mm 0.00 in0.0 mm 0.00 in0.0 mm
11:30 PM 41.4°F5.2°C 25.5°F-3.6°C 53% 5.6 mph NE9.0 kmh NE 10.4 mph16.7 kmh 29.92 in1013.2 mb 0.00 in0.0 mm 0.00 in0.0 mm 0.00 in0.0 mm
11:45 PM 41.0°F5.0°C 25.2°F-3.8°C 53% 6.0 mph ENE9.7 kmh ENE 10.4 mph16.7 kmh 29.92 in1013.2 mb 0.00 in0.0 mm 0.00 in0.0 mm 0.00 in0.0 mm